Time;durP1;ratioP1;P1;durP2;ratioP2;P2;SDS_P1;SDS_P2;PMS_P1;PMS_P2;Temp;Humidity;BMP_temperature;BMP_pressure;BME280_temperature;BME280_humidity;BME280_pressure;Samples;Min_cycle;Max_cycle;Signal;HPM_P1;HPM_P2
2020/12/05 00:02:15;;;;;;;1999.90;999.90;;;;;;;;;;5058243;28;20017;-93
2020/12/05 00:04:41;;;;;;;1999.90;999.90;;;;;;;;;;5057003;28;20094;-94
2020/12/05 00:07:07;;;;;;;1999.90;999.90;;;;;;;;;;5055733;28;20465;-94
2020/12/05 00:09:33;;;;;;;1999.90;999.90;;;;;;;;;;5055664;28;20112;-93
2020/12/05 00:12:02;;;;;;;1999.90;999.90;;;;;;;;;;5056028;28;20112;-92
2020/12/05 00:14:28;;;;;;;1999.90;999.90;;;;;;;;;;5056183;28;20347;-93
2020/12/05 00:16:54;;;;;;;1999.90;999.90;;;;;;;;;;5055951;28;20021;-93
2020/12/05 00:19:20;;;;;;;1999.90;999.90;;;;;;;;;;5055940;28;20021;-93
2020/12/05 00:21:46;;;;;;;1999.90;999.90;;;;;;;;;;5037483;28;20393;-94
2020/12/05 00:24:12;;;;;;;1999.90;999.90;;;;;;;;;;5055196;28;20029;-93
2020/12/05 00:26:38;;;;;;;1999.90;999.90;;;;;;;;;;5055684;28;20048;-93
2020/12/05 00:29:04;;;;;;;1999.90;999.90;;;;;;;;;;5055506;28;20048;-93
2020/12/05 00:31:30;;;;;;;1999.90;999.90;;;;;;;;;;5055289;28;20032;-94
2020/12/05 00:33:56;;;;;;;1999.90;999.90;;;;;;;;;;5055132;28;20021;-94
2020/12/05 00:36:22;;;;;;;1999.90;999.90;;;;;;;;;;5055335;28;20035;-93
2020/12/05 00:38:48;;;;;;;1999.90;999.90;;;;;;;;;;5055221;28;20021;-94
2020/12/05 00:41:18;;;;;;;1999.90;999.90;;;;;;;;;;5055208;28;20032;-94
2020/12/05 00:43:45;;;;;;;1999.90;999.90;;;;;;;;;;5054983;28;20055;-94
2020/12/05 00:46:11;;;;;;;1999.90;999.90;;;;;;;;;;5055332;28;20132;-93
2020/12/05 00:48:37;;;;;;;1999.90;999.90;;;;;;;;;;5055048;28;20083;-94
2020/12/05 00:51:03;;;;;;;1999.90;999.90;;;;;;;;;;5054417;28;20027;-94
2020/12/05 00:53:29;;;;;;;1999.90;999.90;;;;;;;;;;5054745;28;20096;-94
2020/12/05 00:55:55;;;;;;;1999.90;999.90;;;;;;;;;;5037265;28;20124;-93
2020/12/05 00:58:21;;;;;;;1999.90;999.90;;;;;;;;;;5054581;28;20473;-93
2020/12/05 01:00:47;;;;;;;1999.90;999.90;;;;;;;;;;5054171;28;20017;-94
2020/12/05 01:03:13;;;;;;;1999.90;999.90;;;;;;;;;;5053972;28;20128;-94
2020/12/05 01:05:39;;;;;;;1999.90;999.90;;;;;;;;;;5054445;28;20047;-93
2020/12/05 01:08:06;;;;;;;1999.90;999.90;;;;;;;;;;5054161;28;20048;-94
2020/12/05 01:10:33;;;;;;;1999.90;999.90;;;;;;;;;;5054956;28;20032;-94
2020/12/05 01:13:02;;;;;;;1999.90;999.90;;;;;;;;;;5054325;28;20428;-93
2020/12/05 01:15:30;;;;;;;1999.90;999.90;;;;;;;;;;5055149;28;20466;-93
2020/12/05 01:17:57;;;;;;;1999.90;999.90;;;;;;;;;;5054442;28;20112;-93
2020/12/05 01:20:23;;;;;;;1999.90;999.90;;;;;;;;;;5054802;28;20025;-93
2020/12/05 01:22:49;;;;;;;1999.90;999.90;;;;;;;;;;5054334;28;20056;-93
2020/12/05 01:25:15;;;;;;;1999.90;999.90;;;;;;;;;;5056006;28;20025;-93
2020/12/05 01:27:43;;;;;;;1999.90;999.90;;;;;;;;;;5055145;28;20037;-94
2020/12/05 01:30:10;;;;;;;1999.90;999.90;;;;;;;;;;5037595;28;20048;-93
2020/12/05 01:32:36;;;;;;;1999.90;999.90;;;;;;;;;;5053663;28;20284;-93
2020/12/05 01:35:02;;;;;;;1999.90;999.90;;;;;;;;;;5054020;28;20054;-93
2020/12/05 01:37:28;;;;;;;1999.90;999.90;;;;;;;;;;5054091;28;20172;-93
2020/12/05 01:39:54;;;;;;;1999.90;999.90;;;;;;;;;;5053747;28;20473;-92
2020/12/05 01:42:20;;;;;;;1999.90;999.90;;;;;;;;;;5053678;28;20055;-93
2020/12/05 01:44:46;;;;;;;1999.90;999.90;;;;;;;;;;5053804;28;20036;-92
2020/12/05 01:47:12;;;;;;;1999.90;999.90;;;;;;;;;;5053741;28;20382;-92
2020/12/05 01:49:38;;;;;;;1999.90;999.90;;;;;;;;;;5053536;28;20025;-91
2020/12/05 01:52:04;;;;;;;1999.90;999.90;;;;;;;;;;5053257;28;20036;-92
2020/12/05 01:54:30;;;;;;;1999.90;999.90;;;;;;;;;;5053547;28;20389;-93
2020/12/05 01:56:59;;;;;;;1999.90;999.90;;;;;;;;;;5053443;28;20028;-93
2020/12/05 01:59:25;;;;;;;1999.90;999.90;;;;;;;;;;5054551;28;20029;-93
2020/12/05 02:01:53;;;;;;;1999.90;999.90;;;;;;;;;;5054205;28;20040;-93
2020/12/05 02:04:19;;;;;;;1999.90;999.90;;;;;;;;;;5054304;28;20104;-93
2020/12/05 02:07:03;;;;;;;1999.90;999.90;;;;;;;;;;5054017;28;20546;-92
2020/12/05 02:09:32;;;;;;;1999.90;999.90;;;;;;;;;;5069400;28;20017;-92
2020/12/05 02:12:07;;;;;;;1999.90;999.90;;;;;;;;;;5078332;28;20017;-91
2020/12/05 02:14:36;;;;;;;1999.90;999.90;;;;;;;;;;5078332;28;20029;-92
2020/12/05 02:17:06;;;;;;;1999.90;999.90;;;;;;;;;;5078732;28;20043;-92
2020/12/05 02:19:43;;;;;;;1999.90;999.90;;;;;;;;;;5079191;28;20029;-92
2020/12/05 02:22:12;;;;;;;1999.90;999.90;;;;;;;;;;5079593;28;20076;-92
2020/12/05 02:24:38;;;;;;;1999.90;999.90;;;;;;;;;;5079465;28;20080;-92
2020/12/05 02:27:05;;;;;;;1999.90;999.90;;;;;;;;;;5078913;28;20036;-92
2020/12/05 02:29:32;;;;;;;1999.90;999.90;;;;;;;;;;5078637;28;20053;-89
2020/12/05 02:31:59;;;;;;;1999.90;999.90;;;;;;;;;;5080117;28;20052;-92
2020/12/05 02:34:25;;;;;;;1999.90;999.90;;;;;;;;;;5057798;28;20029;-92
2020/12/05 02:36:53;;;;;;;1999.90;999.90;;;;;;;;;;5079768;28;20036;-93
2020/12/05 02:39:20;;;;;;;1999.90;999.90;;;;;;;;;;5066825;28;20029;-92
2020/12/05 02:41:46;;;;;;;1999.90;999.90;;;;;;;;;;5078265;28;20017;-91
2020/12/05 02:44:12;;;;;;;1999.90;999.90;;;;;;;;;;5079504;28;20033;-89
2020/12/05 02:46:39;;;;;;;1999.90;999.90;;;;;;;;;;5079658;28;20092;-91
2020/12/05 02:49:05;;;;;;;1999.90;999.90;;;;;;;;;;5079895;28;20017;-91
2020/12/05 02:51:31;;;;;;;1999.90;999.90;;;;;;;;;;5080065;28;20021;-92
2020/12/05 02:53:57;;;;;;;1999.90;999.90;;;;;;;;;;5079794;28;20033;-92
2020/12/05 02:56:24;;;;;;;1999.90;999.90;;;;;;;;;;5079872;28;20043;-88
2020/12/05 02:58:50;;;;;;;1999.90;999.90;;;;;;;;;;5079914;28;20009;-91
2020/12/05 03:01:16;;;;;;;1999.90;999.90;;;;;;;;;;5079648;28;20047;-91
2020/12/05 03:03:42;;;;;;;1999.90;999.90;;;;;;;;;;5079699;28;20039;-92
2020/12/05 03:06:08;;;;;;;1999.90;999.90;;;;;;;;;;5073576;28;20059;-91
2020/12/05 03:08:34;;;;;;;1999.90;999.90;;;;;;;;;;5058037;28;20493;-93
2020/12/05 03:11:00;;;;;;;1999.90;999.90;;;;;;;;;;5057853;28;20075;-93
2020/12/05 03:13:27;;;;;;;1999.90;999.90;;;;;;;;;;5056480;28;20032;-92
2020/12/05 03:15:53;;;;;;;1999.90;999.90;;;;;;;;;;5056936;28;20100;-92
2020/12/05 03:18:19;;;;;;;1999.90;999.90;;;;;;;;;;5055709;28;20028;-92
2020/12/05 03:20:45;;;;;;;1999.90;999.90;;;;;;;;;;5054918;28;20071;-92
2020/12/05 03:23:11;;;;;;;1999.90;999.90;;;;;;;;;;5055542;28;20033;-92
2020/12/05 03:25:37;;;;;;;1999.90;999.90;;;;;;;;;;5055488;28;20029;-92
2020/12/05 03:28:03;;;;;;;1999.90;999.90;;;;;;;;;;5055719;28;20102;-92
2020/12/05 03:30:29;;;;;;;1999.90;999.90;;;;;;;;;;5055856;28;20025;-91
2020/12/05 03:32:56;;;;;;;1999.90;999.90;;;;;;;;;;5055757;28;20183;-92
2020/12/05 03:35:25;;;;;;;1999.90;999.90;;;;;;;;;;5055846;28;20048;-92
2020/12/05 03:37:51;;;;;;;1999.90;999.90;;;;;;;;;;5056308;28;20037;-92
2020/12/05 03:40:18;;;;;;;1999.90;999.90;;;;;;;;;;5055651;28;20029;-92
2020/12/05 03:42:44;;;;;;;1999.90;999.90;;;;;;;;;;5055698;28;20021;-92
2020/12/05 03:45:10;;;;;;;1999.90;999.90;;;;;;;;;;5054556;28;20371;-91
2020/12/05 03:47:36;;;;;;;1999.90;999.90;;;;;;;;;;5054969;28;20087;-92
2020/12/05 03:50:03;;;;;;;1999.90;999.90;;;;;;;;;;5054944;28;20028;-92
2020/12/05 03:52:29;;;;;;;1999.90;999.90;;;;;;;;;;5055284;28;20021;-92
2020/12/05 03:54:55;;;;;;;1999.90;999.90;;;;;;;;;;5054950;28;20534;-93
2020/12/05 03:57:22;;;;;;;1999.90;999.90;;;;;;;;;;5054938;28;20108;-92
2020/12/05 03:59:48;;;;;;;1999.90;999.90;;;;;;;;;;5055415;28;20063;-92
2020/12/05 04:02:15;;;;;;;1999.90;999.90;;;;;;;;;;5037094;28;20021;-92
2020/12/05 04:04:41;;;;;;;1999.90;999.90;;;;;;;;;;5055049;28;20027;-92
2020/12/05 04:07:07;;;;;;;1999.90;999.90;;;;;;;;;;5037110;28;20040;-91
2020/12/05 04:09:33;;;;;;;1999.90;999.90;;;;;;;;;;5054965;28;20021;-92
2020/12/05 04:11:59;;;;;;;1999.90;999.90;;;;;;;;;;5037244;28;20051;-94
2020/12/05 04:14:25;;;;;;;1999.90;999.90;;;;;;;;;;5036885;28;20117;-93
2020/12/05 04:16:51;;;;;;;1999.90;999.90;;;;;;;;;;5037101;28;20025;-92
2020/12/05 04:19:17;;;;;;;1999.90;999.90;;;;;;;;;;5055311;28;20112;-92
2020/12/05 04:21:43;;;;;;;1999.90;999.90;;;;;;;;;;5054624;28;20064;-92
2020/12/05 04:24:10;;;;;;;1999.90;999.90;;;;;;;;;;5054724;28;20049;-92
2020/12/05 04:26:36;;;;;;;1999.90;999.90;;;;;;;;;;5054571;28;20033;-93
2020/12/05 04:29:03;;;;;;;1999.90;999.90;;;;;;;;;;5054227;28;20056;-92
2020/12/05 04:31:29;;;;;;;1999.90;999.90;;;;;;;;;;5054555;28;20024;-92
2020/12/05 04:33:55;;;;;;;1999.90;999.90;;;;;;;;;;5054992;28;20025;-92
2020/12/05 04:36:21;;;;;;;1999.90;999.90;;;;;;;;;;5036508;28;20055;-93
2020/12/05 04:38:47;;;;;;;1999.90;999.90;;;;;;;;;;5054648;28;20031;-93
2020/12/05 04:41:13;;;;;;;1999.90;999.90;;;;;;;;;;5054413;28;20104;-92
2020/12/05 04:43:39;;;;;;;1999.90;999.90;;;;;;;;;;5054939;28;20033;-92
2020/12/05 04:46:05;;;;;;;1999.90;999.90;;;;;;;;;;5055163;28;20078;-92
2020/12/05 04:48:32;;;;;;;1999.90;999.90;;;;;;;;;;5057880;28;20036;-92
2020/12/05 04:51:01;;;;;;;1999.90;999.90;;;;;;;;;;5056625;28;20108;-92
2020/12/05 04:53:27;;;;;;;1999.90;999.90;;;;;;;;;;5053726;28;20017;-91
2020/12/05 04:55:54;;;;;;;1999.90;999.90;;;;;;;;;;5053684;28;20017;-90
2020/12/05 04:58:20;;;;;;;1999.90;999.90;;;;;;;;;;5053476;28;20021;-91
2020/12/05 05:00:50;;;;;;;1999.90;999.90;;;;;;;;;;5053897;28;20028;-91
2020/12/05 05:03:19;;;;;;;1999.90;999.90;;;;;;;;;;5053602;28;20032;-91
2020/12/05 05:05:45;;;;;;;1999.90;999.90;;;;;;;;;;5054138;28;20025;-91
2020/12/05 05:08:12;;;;;;;1999.90;999.90;;;;;;;;;;5054086;28;20524;-91
2020/12/05 05:10:39;;;;;;;1999.90;999.90;;;;;;;;;;5053747;28;20013;-92
2020/12/05 05:13:13;;;;;;;1999.90;999.90;;;;;;;;;;5053894;28;20025;-92
2020/12/05 05:15:40;;;;;;;1999.90;999.90;;;;;;;;;;5036101;28;20504;-91
2020/12/05 05:18:07;;;;;;;1999.90;999.90;;;;;;;;;;5054005;28;20033;-92
2020/12/05 05:20:37;;;;;;;1999.90;999.90;;;;;;;;;;5053532;28;20025;-91
2020/12/05 05:23:10;;;;;;;1999.90;999.90;;;;;;;;;;5053987;28;20382;-91
2020/12/05 05:25:51;;;;;;;1999.90;999.90;;;;;;;;;;5053342;28;20025;-91
2020/12/05 05:28:18;;;;;;;1999.90;999.90;;;;;;;;;;5053434;28;20382;-91
2020/12/05 05:31:18;;;;;;;1999.90;999.90;;;;;;;;;;5053838;28;20025;-92
2020/12/05 05:33:45;;;;;;;1999.90;999.90;;;;;;;;;;5048376;28;20037;-91
2020/12/05 05:36:19;;;;;;;1999.90;999.90;;;;;;;;;;5054242;28;20025;-92
2020/12/05 05:38:55;;;;;;;1999.90;999.90;;;;;;;;;;5053688;28;20056;-91
2020/12/05 05:41:22;;;;;;;1999.90;999.90;;;;;;;;;;5053758;28;20025;-92
2020/12/05 05:43:55;;;;;;;1999.90;999.90;;;;;;;;;;5056931;28;20025;-93
2020/12/05 05:46:28;;;;;;;1999.90;999.90;;;;;;;;;;5058399;28;20106;-92
2020/12/05 05:48:55;;;;;;;1999.90;999.90;;;;;;;;;;5058054;28;20021;-92
2020/12/05 05:51:37;;;;;;;1999.90;999.90;;;;;;;;;;5057752;28;20052;-92
2020/12/05 05:54:10;;;;;;;1999.90;999.90;;;;;;;;;;5059829;28;20057;-92
2020/12/05 05:56:36;;;;;;;1999.90;999.90;;;;;;;;;;5057851;28;20423;-92
2020/12/05 05:59:05;;;;;;;1999.90;999.90;;;;;;;;;;5057367;28;20377;-91
2020/12/05 06:01:32;;;;;;;1999.90;999.90;;;;;;;;;;5057411;28;20021;-92
2020/12/05 06:04:02;;;;;;;1999.90;999.90;;;;;;;;;;5058162;28;20074;-92
2020/12/05 06:06:30;;;;;;;1999.90;999.90;;;;;;;;;;5059507;28;20037;-91
2020/12/05 06:08:57;;;;;;;1999.90;999.90;;;;;;;;;;5059904;28;20070;-92
2020/12/05 06:11:24;;;;;;;1999.90;999.90;;;;;;;;;;5046478;28;20028;-91
2020/12/05 06:13:50;;;;;;;1999.90;999.90;;;;;;;;;;5070552;28;20021;-91
2020/12/05 06:16:18;;;;;;;1999.90;999.90;;;;;;;;;;5067496;28;20027;-91
2020/12/05 06:18:45;;;;;;;1999.90;999.90;;;;;;;;;;5068704;28;20082;-91
2020/12/05 06:21:11;;;;;;;1999.90;999.90;;;;;;;;;;5067024;28;20029;-91
2020/12/05 06:23:40;;;;;;;1999.90;999.90;;;;;;;;;;5066174;28;20117;-91
2020/12/05 06:26:10;;;;;;;142.68;126.30;;;;;;;;;;5066345;28;20049;-91
2020/12/05 06:28:40;;;;;;;146.90;131.10;;;;;;;;;;5066308;28;20491;-92
2020/12/05 06:31:06;;;;;;;143.82;129.20;;;;;;;;;;5070295;28;20008;-88
2020/12/05 06:33:33;;;;;;;136.38;121.55;;;;;;;;;;5074930;28;20029;-88
2020/12/05 06:35:59;;;;;;;142.30;127.72;;;;;;;;;;5075265;28;20029;-87
2020/12/05 06:38:25;;;;;;;137.20;123.50;;;;;;;;;;5055648;28;20029;-88
2020/12/05 06:40:51;;;;;;;141.75;126.93;;;;;;;;;;5071365;28;20032;-88
2020/12/05 06:43:17;;;;;;;137.82;123.80;;;;;;;;;;5073183;28;20025;-87
2020/12/05 06:45:44;;;;;;;139.80;125.25;;;;;;;;;;5073674;28;20041;-88
2020/12/05 06:48:10;;;;;;;139.82;125.43;;;;;;;;;;5070916;28;20029;-87
2020/12/05 06:50:40;;;;;;;148.57;133.15;;;;;;;;;;5070583;28;20040;-90
2020/12/05 06:53:21;;;;;;;141.40;126.53;;;;;;;;;;5070638;28;20473;-92
2020/12/05 06:55:48;;;;;;;145.20;129.57;;;;;;;;;;5057650;28;20028;-92
2020/12/05 06:58:14;;;;;;;1999.90;999.90;;;;;;;;;;5074183;28;20032;-93
2020/12/05 07:00:41;;;;;;;1999.90;999.90;;;;;;;;;;5075333;28;20025;-92
2020/12/05 07:03:08;;;;;;;1999.90;999.90;;;;;;;;;;5078265;28;20028;-93
2020/12/05 07:05:41;;;;;;;1999.90;999.90;;;;;;;;;;5060722;28;20052;-93
2020/12/05 07:08:23;;;;;;;1999.90;999.90;;;;;;;;;;5020993;28;20485;-93
2020/12/05 07:10:54;;;;;;;1999.90;999.90;;;;;;;;;;5051251;28;20029;-90
2020/12/05 07:13:43;;;;;;;1999.90;999.90;;;;;;;;;;5042797;28;20029;-90
2020/12/05 07:16:11;;;;;;;1999.90;999.90;;;;;;;;;;5030221;28;20042;-92
2020/12/05 07:18:41;;;;;;;1999.90;999.90;;;;;;;;;;5050094;28;20029;-93
2020/12/05 07:21:07;;;;;;;1999.90;999.90;;;;;;;;;;5047656;28;20032;-94
2020/12/05 07:23:34;;;;;;;1999.90;999.90;;;;;;;;;;5054982;28;20052;-89
2020/12/05 07:26:00;;;;;;;1999.90;999.90;;;;;;;;;;5053198;28;20551;-92
2020/12/05 07:28:26;;;;;;;1999.90;999.90;;;;;;;;;;5053687;28;20086;-93
2020/12/05 07:30:52;;;;;;;1999.90;999.90;;;;;;;;;;5056450;28;20051;-92
2020/12/05 07:33:20;;;;;;;1999.90;999.90;;;;;;;;;;5055810;28;20024;-93
2020/12/05 07:35:46;;;;;;;1999.90;999.90;;;;;;;;;;5056312;28;20029;-92
2020/12/05 07:38:12;;;;;;;1999.90;999.90;;;;;;;;;;5055488;28;20066;-92
2020/12/05 07:40:39;;;;;;;1999.90;999.90;;;;;;;;;;5054904;28;20060;-86
2020/12/05 07:43:14;;;;;;;1999.90;999.90;;;;;;;;;;5048607;28;20063;-95
2020/12/05 07:45:40;;;;;;;1999.90;999.90;;;;;;;;;;5044709;28;20025;-92
2020/12/05 07:48:10;;;;;;;1999.90;999.90;;;;;;;;;;5029200;28;20438;-88
2020/12/05 07:50:36;;;;;;;1999.90;999.90;;;;;;;;;;5049828;28;20029;-87
2020/12/05 07:53:02;;;;;;;1999.90;999.90;;;;;;;;;;5051847;28;20036;-87
2020/12/05 07:55:29;;;;;;;1999.90;999.90;;;;;;;;;;5056776;28;20075;-89
2020/12/05 07:57:55;;;;;;;1999.90;999.90;;;;;;;;;;5056811;28;20088;-92
2020/12/05 08:00:22;;;;;;;1999.90;999.90;;;;;;;;;;5038249;28;20032;-92
2020/12/05 08:03:06;;;;;;;1999.90;999.90;;;;;;;;;;5060731;28;20405;-91
2020/12/05 08:05:39;;;;;;;1999.90;999.90;;;;;;;;;;5051835;28;20013;-86
2020/12/05 08:08:06;;;;;;;1999.90;999.90;;;;;;;;;;5058924;28;20056;-85
2020/12/05 08:10:33;;;;;;;1999.90;999.90;;;;;;;;;;5059423;28;20044;-85
2020/12/05 08:13:02;;;;;;;1999.90;999.90;;;;;;;;;;5059311;28;20026;-91
2020/12/05 08:15:28;;;;;;;1999.90;999.90;;;;;;;;;;5075833;28;20036;-86
2020/12/05 08:17:55;;;;;;;1999.90;999.90;;;;;;;;;;5077638;28;20088;-94
2020/12/05 08:20:21;;;;;;;1999.90;999.90;;;;;;;;;;5077046;28;20013;-91
2020/12/05 08:22:47;;;;;;;1999.90;999.90;;;;;;;;;;5071884;28;20032;-91
2020/12/05 08:25:15;;;;;;;1999.90;999.90;;;;;;;;;;5074192;28;20100;-91
2020/12/05 08:27:41;;;;;;;1999.90;999.90;;;;;;;;;;5074520;28;20037;-91
2020/12/05 08:30:10;;;;;;;1999.90;999.90;;;;;;;;;;5072026;28;20068;-90
2020/12/05 08:32:37;;;;;;;1999.90;999.90;;;;;;;;;;5074056;28;20021;-90
2020/12/05 08:35:05;;;;;;;1999.90;999.90;;;;;;;;;;5079908;28;20025;-89
2020/12/05 08:37:32;;;;;;;1999.90;999.90;;;;;;;;;;5052180;28;20037;-84
2020/12/05 08:39:58;;;;;;;1999.90;999.90;;;;;;;;;;5076960;28;20040;-87
2020/12/05 08:42:25;;;;;;;1999.90;999.90;;;;;;;;;;5075714;28;20021;-87
2020/12/05 08:44:51;;;;;;;1999.90;999.90;;;;;;;;;;5076530;28;20009;-87
2020/12/05 08:47:17;;;;;;;1999.90;999.90;;;;;;;;;;5077126;28;20029;-90
2020/12/05 08:49:44;;;;;;;1999.90;999.90;;;;;;;;;;5074198;28;20021;-88
2020/12/05 08:52:11;;;;;;;1999.90;999.90;;;;;;;;;;5066151;28;20034;-85
2020/12/05 08:54:50;;;;;;;1999.90;999.90;;;;;;;;;;5072371;28;20021;-87
2020/12/05 08:57:16;;;;;;;1999.90;999.90;;;;;;;;;;5067613;28;20057;-87
2020/12/05 08:59:42;;;;;;;1999.90;999.90;;;;;;;;;;5070169;28;20033;-87
2020/12/05 09:02:09;;;;;;;1999.90;999.90;;;;;;;;;;5065554;28;20017;-88
2020/12/05 09:04:36;;;;;;;1999.90;999.90;;;;;;;;;;5076767;28;20013;-89
2020/12/05 09:07:09;;;;;;;1999.90;999.90;;;;;;;;;;5067102;28;20049;-86
2020/12/05 09:09:35;;;;;;;1999.90;999.90;;;;;;;;;;5047289;28;20108;-88
2020/12/05 09:12:22;;;;;;;1999.90;999.90;;;;;;;;;;5054950;28;20029;-86
2020/12/05 09:14:47;;;;;;;;;;;;;;;;;;5050571;28;20029;-90
2020/12/05 09:17:25;;;;;;;1536.50;782.60;;;;;;;;;;5041158;28;20368;-88
2020/12/05 09:19:52;;;;;;;1999.90;999.90;;;;;;;;;;5071743;28;20024;-91
2020/12/05 09:22:34;;;;;;;1999.90;999.90;;;;;;;;;;5053336;28;20021;-92
2020/12/05 09:25:00;;;;;;;140.80;126.05;;;;;;;;;;5067120;28;20063;-90
2020/12/05 09:27:39;;;;;;;140.95;126.03;;;;;;;;;;5057063;28;20080;-90
2020/12/05 09:30:13;;;;;;;143.38;128.43;;;;;;;;;;5043975;28;20125;-90
2020/12/05 09:32:45;;;;;;;142.90;127.90;;;;;;;;;;5056641;28;20029;-90
2020/12/05 09:35:12;;;;;;;140.80;126.15;;;;;;;;;;5058431;28;20017;-93
2020/12/05 09:37:38;;;;;;;144.82;128.82;;;;;;;;;;5057798;28;20024;-92
2020/12/05 09:40:05;;;;;;;138.68;123.85;;;;;;;;;;5052407;28;20071;-91
2020/12/05 09:42:31;;;;;;;144.60;129.52;;;;;;;;;;5065143;28;20028;-93
2020/12/05 09:44:57;;;;;;;138.88;124.65;;;;;;;;;;5045668;28;20435;-94
2020/12/05 09:47:23;;;;;;;141.57;126.88;;;;;;;;;;5050596;28;20048;-93
2020/12/05 09:49:49;;;;;;;141.13;126.47;;;;;;;;;;5075185;28;20020;-93
2020/12/05 09:52:15;;;;;;;139.32;125.28;;;;;;;;;;5050744;28;20024;-84
2020/12/05 09:54:41;;;;;;;141.10;126.90;;;;;;;;;;5056837;28;20021;-90
2020/12/05 09:57:07;;;;;;;139.13;124.63;;;;;;;;;;5055328;28;20026;-78
2020/12/05 09:59:34;;;;;;;136.73;122.10;;;;;;;;;;5058342;28;20028;-86
2020/12/05 10:02:06;;;;;;;133.93;120.07;;;;;;;;;;5055512;28;20049;-87
2020/12/05 10:04:32;;;;;;;137.60;123.75;;;;;;;;;;5054370;28;20376;-92
2020/12/05 10:06:58;;;;;;;138.52;124.05;;;;;;;;;;5056758;28;20044;-93
2020/12/05 10:09:24;;;;;;;131.70;118.10;;;;;;;;;;5059004;28;20512;-95
2020/12/05 10:11:50;;;;;;;134.88;121.55;;;;;;;;;;5046941;28;20040;-92
2020/12/05 10:14:16;;;;;;;137.20;123.13;;;;;;;;;;5047288;28;20030;-91
2020/12/05 10:16:43;;;;;;;137.93;123.95;;;;;;;;;;5061560;28;20104;-91
2020/12/05 10:19:09;;;;;;;138.55;123.63;;;;;;;;;;5061428;28;20035;-91
2020/12/05 10:21:35;;;;;;;141.40;127.28;;;;;;;;;;5073255;28;20112;-93
2020/12/05 10:24:01;;;;;;;134.95;121.13;;;;;;;;;;5062772;28;20025;-92
2020/12/05 10:26:27;;;;;;;133.30;119.68;;;;;;;;;;5050614;28;20030;-91
2020/12/05 10:28:53;;;;;;;131.38;118.55;;;;;;;;;;5059076;28;20049;-91
2020/12/05 10:31:19;;;;;;;139.45;125.88;;;;;;;;;;5064364;28;20050;-91
2020/12/05 10:33:45;;;;;;;133.25;119.60;;;;;;;;;;5058274;28;20493;-88
2020/12/05 10:36:11;;;;;;;135.45;121.75;;;;;;;;;;5057386;28;20033;-92
2020/12/05 10:38:37;;;;;;;136.23;122.38;;;;;;;;;;5041309;28;20109;-93
2020/12/05 10:41:03;;;;;;;134.32;121.22;;;;;;;;;;5065146;28;20041;-91
2020/12/05 10:43:29;;;;;;;131.82;118.55;;;;;;;;;;5062483;28;20028;-91
2020/12/05 10:45:55;;;;;;;135.88;122.53;;;;;;;;;;5058809;28;20016;-90
2020/12/05 10:48:21;;;;;;;134.20;121.00;;;;;;;;;;5056489;28;20025;-87
2020/12/05 10:50:47;;;;;;;134.52;121.13;;;;;;;;;;5039905;28;20549;-87
2020/12/05 10:53:13;;;;;;;132.55;119.65;;;;;;;;;;5060134;28;20096;-85
2020/12/05 10:55:39;;;;;;;135.82;122.50;;;;;;;;;;5047357;28;20080;-83
2020/12/05 10:58:05;;;;;;;135.65;121.47;;;;;;;;;;5034252;28;20052;-86
2020/12/05 11:00:31;;;;;;;138.98;125.32;;;;;;;;;;5051128;28;20028;-84
2020/12/05 11:02:57;;;;;;;139.45;125.75;;;;;;;;;;5053433;28;20017;-83
2020/12/05 11:05:23;;;;;;;140.65;126.15;;;;;;;;;;5049791;28;20032;-83
2020/12/05 11:07:49;;;;;;;608.20;347.50;;;;;;;;;;5050744;28;20036;-84
2020/12/05 11:10:15;;;;;;;608.13;346.92;;;;;;;;;;5051709;28;20053;-82
2020/12/05 11:12:41;;;;;;;1999.90;999.90;;;;;;;;;;5044742;28;20052;-87
2020/12/05 11:15:08;;;;;;;1999.90;999.90;;;;;;;;;;5044956;28;20022;-88
2020/12/05 11:17:34;;;;;;;1999.90;999.90;;;;;;;;;;5046221;28;20032;-88
2020/12/05 11:20:00;;;;;;;1999.90;999.90;;;;;;;;;;5062917;28;20473;-89
2020/12/05 11:22:26;;;;;;;1999.90;999.90;;;;;;;;;;5037424;28;20082;-88
2020/12/05 11:24:52;;;;;;;1999.90;999.90;;;;;;;;;;5055436;28;20029;-87
2020/12/05 11:27:19;;;;;;;1999.90;999.90;;;;;;;;;;5055985;28;20037;-91
2020/12/05 11:29:45;;;;;;;1999.90;999.90;;;;;;;;;;5055362;28;20083;-89
2020/12/05 11:32:11;;;;;;;1999.90;999.90;;;;;;;;;;5057231;28;20497;-90
2020/12/05 11:34:37;;;;;;;1999.90;999.90;;;;;;;;;;5054809;28;20032;-87
2020/12/05 11:37:03;;;;;;;1999.90;999.90;;;;;;;;;;5050138;28;20032;-89
2020/12/05 11:39:29;;;;;;;131.93;118.78;;;;;;;;;;5045752;28;20390;-88
2020/12/05 11:41:55;;;;;;;135.07;121.75;;;;;;;;;;5052133;28;20032;-88
2020/12/05 11:44:21;;;;;;;133.95;120.78;;;;;;;;;;5054676;28;20037;-88
2020/12/05 11:46:49;;;;;;;133.07;120.13;;;;;;;;;;5052761;28;20040;-89
2020/12/05 11:49:15;;;;;;;129.43;117.18;;;;;;;;;;5053188;28;20017;-86
2020/12/05 11:51:41;;;;;;;126.75;114.50;;;;;;;;;;5052437;28;20027;-85
2020/12/05 11:54:07;;;;;;;132.25;119.55;;;;;;;;;;5050569;28;20029;-84
2020/12/05 11:56:33;;;;;;;127.55;115.10;;;;;;;;;;5035605;28;20016;-92
2020/12/05 11:58:59;;;;;;;126.22;113.32;;;;;;;;;;5052408;28;20511;-90
2020/12/05 12:01:25;;;;;;;128.85;115.97;;;;;;;;;;5054546;28;20025;-90
2020/12/05 12:03:51;;;;;;;124.15;111.88;;;;;;;;;;5036347;28;20065;-89
2020/12/05 12:06:21;;;;;;;130.48;117.63;;;;;;;;;;5053711;28;20079;-90
2020/12/05 12:08:47;;;;;;;130.90;118.43;;;;;;;;;;5050246;28;20481;-90
2020/12/05 12:11:22;;;;;;;126.90;114.45;;;;;;;;;;5041985;28;20062;-94
2020/12/05 12:13:49;;;;;;;130.60;117.93;;;;;;;;;;5037662;28;20026;-90
2020/12/05 12:16:15;;;;;;;128.43;116.10;;;;;;;;;;5053870;28;20017;-89
2020/12/05 12:18:42;;;;;;;125.63;113.07;;;;;;;;;;5051209;28;20043;-70
2020/12/05 12:21:08;;;;;;;125.32;112.80;;;;;;;;;;5052959;28;20028;-89
2020/12/05 12:23:34;;;;;;;123.15;111.18;;;;;;;;;;5054558;28;20032;-88
2020/12/05 12:26:00;;;;;;;124.93;112.82;;;;;;;;;;5052051;28;20473;-86
2020/12/05 12:28:27;;;;;;;128.10;115.82;;;;;;;;;;5053319;28;20111;-88
2020/12/05 12:30:53;;;;;;;126.30;113.80;;;;;;;;;;5052179;28;20033;-87
2020/12/05 12:33:19;;;;;;;122.70;110.80;;;;;;;;;;5051662;28;20029;-80
2020/12/05 12:35:45;;;;;;;123.10;111.55;;;;;;;;;;5053832;28;20056;-86
2020/12/05 12:38:12;;;;;;;120.90;109.07;;;;;;;;;;5051443;28;20025;-75
2020/12/05 12:40:38;;;;;;;120.13;109.35;;;;;;;;;;5060408;28;20059;-82
2020/12/05 12:43:04;;;;;;;121.97;110.35;;;;;;;;;;5051160;28;20033;-82
2020/12/05 12:45:32;;;;;;;124.22;112.43;;;;;;;;;;5050674;28;20045;-83
2020/12/05 12:50:27;;;;;;;129.32;117.32;;;;;;;;;;5047851;28;20045;-83
2020/12/05 12:52:53;;;;;;;131.10;118.43;;;;;;;;;;5031503;28;20085;-83
2020/12/05 12:55:19;;;;;;;132.90;120.30;;;;;;;;;;5050103;28;20025;-82
2020/12/05 12:57:47;;;;;;;129.85;118.25;;;;;;;;;;5050005;28;20370;-83
2020/12/05 13:00:13;;;;;;;126.38;114.40;;;;;;;;;;5050034;28;20052;-82
2020/12/05 13:02:39;;;;;;;132.18;119.50;;;;;;;;;;5050168;28;20389;-82
2020/12/05 13:05:05;;;;;;;125.75;113.90;;;;;;;;;;5051273;28;20025;-82
2020/12/05 13:07:31;;;;;;;128.27;116.50;;;;;;;;;;5051526;28;20036;-82
2020/12/05 13:09:57;;;;;;;126.20;114.70;;;;;;;;;;5051469;28;20432;-84
2020/12/05 13:12:23;;;;;;;130.57;117.93;;;;;;;;;;5051645;28;20028;-83
2020/12/05 13:14:49;;;;;;;126.53;114.72;;;;;;;;;;5051409;28;20021;-83
2020/12/05 13:17:15;;;;;;;127.60;115.68;;;;;;;;;;5051461;28;20029;-82
2020/12/05 13:19:41;;;;;;;124.65;113.10;;;;;;;;;;5051245;28;20539;-83
2020/12/05 13:22:07;;;;;;;126.18;113.63;;;;;;;;;;5051642;28;20037;-82
2020/12/05 13:24:33;;;;;;;122.65;111.13;;;;;;;;;;5051498;28;20017;-83
2020/12/05 13:26:59;;;;;;;123.07;111.28;;;;;;;;;;5032768;28;20389;-82
2020/12/05 13:29:25;;;;;;;124.63;112.95;;;;;;;;;;5051240;28;20072;-82
2020/12/05 13:31:51;;;;;;;127.40;115.05;;;;;;;;;;5051447;28;20017;-82
2020/12/05 13:34:17;;;;;;;127.22;115.05;;;;;;;;;;5051139;28;20067;-82
2020/12/05 13:36:43;;;;;;;127.80;115.53;;;;;;;;;;5051030;28;20036;-82
2020/12/05 13:39:09;;;;;;;125.57;113.75;;;;;;;;;;5051233;28;20097;-82
2020/12/05 13:41:36;;;;;;;122.82;111.40;;;;;;;;;;5051155;28;20021;-82
2020/12/05 13:44:04;;;;;;;127.65;115.63;;;;;;;;;;5051196;28;20025;-82
2020/12/05 13:46:30;;;;;;;126.30;114.78;;;;;;;;;;5050946;28;20033;-82
2020/12/05 13:48:56;;;;;;;121.28;109.38;;;;;;;;;;5051074;28;20083;-82